createdAt,value
2018-07-11T00:01:53.836Z,19.13
2018-07-11T00:04:24.251Z,18.34
2018-07-11T00:06:54.231Z,18.41
2018-07-11T00:09:24.204Z,18.78
2018-07-11T00:11:54.249Z,18.47
2018-07-11T00:14:24.140Z,18.39
2018-07-11T00:16:59.303Z,18.51
2018-07-11T00:19:29.331Z,18.39
2018-07-11T00:21:59.472Z,18.65
2018-07-11T00:24:29.596Z,18.35
2018-07-11T00:26:59.712Z,18.62
2018-07-11T00:29:29.872Z,18.71
2018-07-11T00:31:59.947Z,18.70
2018-07-11T00:34:30.196Z,18.80
2018-07-11T00:37:00.355Z,18.87
2018-07-11T00:39:30.463Z,18.75
2018-07-11T00:42:00.515Z,18.68
2018-07-11T00:44:30.611Z,18.63
2018-07-11T00:47:00.708Z,18.65
2018-07-11T00:49:30.761Z,18.63
2018-07-11T00:52:00.939Z,18.65
2018-07-11T00:54:31.024Z,18.60
2018-07-11T00:57:01.644Z,18.56
2018-07-11T00:59:32.949Z,18.55
2018-07-11T01:02:05.509Z,18.52
2018-07-11T01:04:35.888Z,18.49
2018-07-11T01:07:07.390Z,18.30
2018-07-11T01:09:45.838Z,18.19
2018-07-11T01:12:15.895Z,18.27
2018-07-11T01:14:46.487Z,18.24
2018-07-11T01:17:21.530Z,18.26
2018-07-11T01:19:52.132Z,18.28
2018-07-11T01:22:22.273Z,18.20
2018-07-11T01:24:52.279Z,18.27
2018-07-11T01:27:22.228Z,18.35
2018-07-11T01:29:52.249Z,18.21
2018-07-11T01:32:22.182Z,18.26
2018-07-11T01:34:52.069Z,18.35
2018-07-11T01:37:22.059Z,18.34
2018-07-11T01:39:52.124Z,18.35
2018-07-11T01:42:22.074Z,18.26
2018-07-11T01:44:52.120Z,18.24
2018-07-11T01:47:22.023Z,18.22
2018-07-11T01:49:52.071Z,18.25
2018-07-11T01:52:32.936Z,18.23
2018-07-11T01:55:02.923Z,18.21
2018-07-11T01:57:32.847Z,18.21
2018-07-11T02:00:02.880Z,18.22
2018-07-11T02:02:33.045Z,18.19
2018-07-11T02:05:03.075Z,18.18
2018-07-11T02:07:33.218Z,17.39
2018-07-11T02:10:03.227Z,17.57
2018-07-11T02:12:33.295Z,17.88
2018-07-11T02:15:06.252Z,17.99
2018-07-11T02:17:37.927Z,18.09
2018-07-11T02:20:12.095Z,18.08
2018-07-11T02:22:42.264Z,18.07
2018-07-11T02:25:13.868Z,18.00
2018-07-11T02:27:43.939Z,17.93
2018-07-11T02:30:15.348Z,17.86
2018-07-11T02:32:45.443Z,17.81
2018-07-11T02:35:15.608Z,17.77
2018-07-11T02:37:45.436Z,17.81
2018-07-11T02:40:15.291Z,18.33
2018-07-11T02:42:45.248Z,18.83
2018-07-11T02:45:15.437Z,19.20
2018-07-11T02:47:45.411Z,19.56
2018-07-11T02:50:15.384Z,19.86
2018-07-11T02:52:45.365Z,20.10
2018-07-11T02:55:15.388Z,20.25
2018-07-11T02:57:45.459Z,20.15
2018-07-11T03:00:15.390Z,19.83
2018-07-11T03:02:45.532Z,19.52
2018-07-11T03:05:15.709Z,19.27
2018-07-11T03:07:45.736Z,19.22
2018-07-11T03:10:15.861Z,19.14
2018-07-11T03:12:46.724Z,18.98
2018-07-11T03:15:16.676Z,18.84
2018-07-11T03:17:46.812Z,18.70
2018-07-11T03:20:18.540Z,18.63
2018-07-11T03:22:53.727Z,18.56
2018-07-11T03:25:26.680Z,18.51
2018-07-11T03:27:57.200Z,18.42
2018-07-11T03:30:27.191Z,18.33
2018-07-11T03:32:57.276Z,18.26
2018-07-11T03:35:27.263Z,18.22
2018-07-11T03:37:57.204Z,18.15
2018-07-11T03:40:27.047Z,18.10
2018-07-11T03:42:56.951Z,18.04
2018-07-11T03:45:27.071Z,18.11
2018-07-11T03:47:57.027Z,18.15
2018-07-11T03:50:27.002Z,18.10
2018-07-11T03:52:56.891Z,18.12
2018-07-11T03:55:26.816Z,18.16
2018-07-11T03:57:56.678Z,18.23
2018-07-11T04:00:26.823Z,18.23
2018-07-11T04:02:57.131Z,18.27
2018-07-11T04:05:27.050Z,18.33
2018-07-11T04:07:57.060Z,18.31
2018-07-11T04:10:27.057Z,17.93
2018-07-11T04:12:59.667Z,18.12
2018-07-11T04:15:29.575Z,18.14
2018-07-11T04:17:59.547Z,18.23
2018-07-11T04:20:29.471Z,18.25
2018-07-11T04:22:59.313Z,18.24
2018-07-11T04:25:29.651Z,18.26
2018-07-11T04:27:59.832Z,18.29
2018-07-11T04:30:30.058Z,18.37
2018-07-11T04:33:00.013Z,18.49
2018-07-11T04:35:30.007Z,18.56
2018-07-11T04:38:00.061Z,18.62
2018-07-11T04:40:30.116Z,18.68
2018-07-11T04:43:00.510Z,18.57
2018-07-11T04:45:30.375Z,18.60
2018-07-11T04:48:00.469Z,18.72
2018-07-11T04:50:30.568Z,18.78
2018-07-11T04:53:03.287Z,18.71
2018-07-11T04:55:33.385Z,18.79
2018-07-11T04:58:03.275Z,18.86
2018-07-11T05:00:33.133Z,18.85
2018-07-11T05:03:03.255Z,18.87
2018-07-11T05:05:33.154Z,18.91
2018-07-11T05:08:02.983Z,18.89
2018-07-11T05:10:32.934Z,18.88
2018-07-11T05:13:02.796Z,18.96
2018-07-11T05:15:32.793Z,19.08
2018-07-11T05:18:02.653Z,19.10
2018-07-11T05:20:32.747Z,19.17
2018-07-11T05:23:02.803Z,19.30
2018-07-11T05:25:34.125Z,19.60
2018-07-11T05:28:04.145Z,19.88
2018-07-11T05:30:34.297Z,20.21
2018-07-11T05:33:04.197Z,20.39
2018-07-11T05:35:34.127Z,20.63
2018-07-11T05:38:04.152Z,20.68
2018-07-11T05:40:34.003Z,20.95
2018-07-11T05:43:03.944Z,21.24
2018-07-11T05:45:33.815Z,21.40
2018-07-11T05:48:03.682Z,21.65
2018-07-11T05:50:33.621Z,21.83
2018-07-11T05:53:03.585Z,21.81
2018-07-11T05:55:33.406Z,21.81
2018-07-11T05:58:03.540Z,21.89
2018-07-11T06:00:33.457Z,21.98
2018-07-11T06:03:03.473Z,21.97
2018-07-11T06:05:34.302Z,21.82
2018-07-11T06:08:04.444Z,21.76
2018-07-11T06:10:34.559Z,21.76
2018-07-11T06:13:04.584Z,21.66
2018-07-11T06:15:34.491Z,21.89
2018-07-11T06:18:04.391Z,21.95
2018-07-11T06:20:34.266Z,21.73
2018-07-11T06:23:04.282Z,21.89
2018-07-11T06:25:36.281Z,21.52
2018-07-11T06:28:06.341Z,21.38
2018-07-11T06:30:36.244Z,21.38
2018-07-11T06:33:06.297Z,21.56
2018-07-11T06:35:39.575Z,21.76
2018-07-11T06:38:09.435Z,21.86
2018-07-11T06:40:39.356Z,21.99
2018-07-11T06:43:09.300Z,21.85
2018-07-11T06:45:39.157Z,21.92
2018-07-11T06:48:09.089Z,21.95
2018-07-11T06:50:39.068Z,21.96
2018-07-11T06:53:09.028Z,21.70
2018-07-11T06:55:39.002Z,21.94
2018-07-11T06:58:09.028Z,21.58
2018-07-11T07:00:39.014Z,21.77
2018-07-11T07:03:08.883Z,21.26
2018-07-11T07:05:38.719Z,21.58
2018-07-11T07:08:08.861Z,21.78
2018-07-11T07:10:38.870Z,21.82
2018-07-11T07:13:08.757Z,22.04
2018-07-11T07:15:38.699Z,22.14
2018-07-11T07:18:08.673Z,22.24
2018-07-11T07:20:38.535Z,22.21
2018-07-11T07:23:08.426Z,22.27
2018-07-11T07:25:38.364Z,22.42
2018-07-11T07:28:08.412Z,22.43
2018-07-11T07:30:38.396Z,22.61
2018-07-11T07:33:08.384Z,22.64
2018-07-11T07:35:38.287Z,22.71
2018-07-11T07:38:08.164Z,22.76
2018-07-11T07:40:37.990Z,22.44
2018-07-11T07:43:07.875Z,22.55
2018-07-11T07:45:37.894Z,22.65
2018-07-11T07:48:07.911Z,22.90
2018-07-11T07:50:37.892Z,22.87
2018-07-11T07:53:08.802Z,22.90
2018-07-11T07:55:38.819Z,22.79
2018-07-11T07:58:08.831Z,22.86
2018-07-11T08:00:38.799Z,22.40
2018-07-11T08:03:08.781Z,22.72
2018-07-11T08:05:38.785Z,22.92
2018-07-11T08:08:08.735Z,22.92
2018-07-11T08:10:38.643Z,22.91
2018-07-11T08:13:08.635Z,23.23
2018-07-11T08:15:38.494Z,23.30
2018-07-11T08:18:08.412Z,23.52
2018-07-11T08:20:38.311Z,23.60
2018-07-11T08:23:20.509Z,22.96
2018-07-11T08:26:02.649Z,23.36
2018-07-11T08:28:40.406Z,23.61
2018-07-11T08:31:50.764Z,23.68
2018-07-11T08:34:31.387Z,23.43
2018-07-11T08:37:14.037Z,23.56
2018-07-11T08:40:43.384Z,23.64
2018-07-11T08:45:34.716Z,23.92
2018-07-11T08:50:19.071Z,24.03
2018-07-11T08:53:00.648Z,23.54
2018-07-11T08:55:41.456Z,23.58
2018-07-11T09:02:34.907Z,23.23
2018-07-11T09:06:14.287Z,23.48
2018-07-11T09:08:59.592Z,23.71
2018-07-11T09:12:43.144Z,23.75
2018-07-11T09:17:28.632Z,23.91
2018-07-11T09:20:15.590Z,23.90
2018-07-11T09:23:00.038Z,23.92
2018-07-11T09:25:29.975Z,24.10
2018-07-11T09:27:59.920Z,24.17
2018-07-11T09:30:29.819Z,24.21
2018-07-11T09:32:59.789Z,24.27
2018-07-11T09:35:29.924Z,24.25
2018-07-11T09:38:00.048Z,24.20
2018-07-11T09:40:30.109Z,24.32
2018-07-11T09:43:00.239Z,24.30
2018-07-11T09:45:30.279Z,24.32
2018-07-11T09:48:00.279Z,24.38
2018-07-11T09:50:30.295Z,24.52
2018-07-11T09:53:00.320Z,24.55
2018-07-11T09:55:30.402Z,24.56
2018-07-11T09:58:00.403Z,24.59
2018-07-11T10:00:35.619Z,24.52
2018-07-11T10:03:06.036Z,24.58
2018-07-11T10:05:35.980Z,24.51
2018-07-11T10:08:09.601Z,24.64
2018-07-11T10:10:39.495Z,24.22
2018-07-11T10:13:09.544Z,24.28
2018-07-11T10:15:39.486Z,24.36
2018-07-11T10:18:09.438Z,24.28
2018-07-11T10:20:39.444Z,24.35
2018-07-11T10:23:09.283Z,24.40
2018-07-11T10:25:39.381Z,24.49
2018-07-11T10:28:20.296Z,24.63
2018-07-11T10:30:50.764Z,24.56
2018-07-11T10:33:20.697Z,24.44
2018-07-11T10:35:50.549Z,24.38
2018-07-11T10:38:20.495Z,24.51
2018-07-11T10:40:50.442Z,24.63
2018-07-11T10:43:20.508Z,24.66
2018-07-11T10:45:50.491Z,24.79
2018-07-11T10:48:20.557Z,24.48
2018-07-11T10:50:50.565Z,24.75
2018-07-11T10:53:20.537Z,24.82
2018-07-11T10:55:50.440Z,24.87
2018-07-11T10:58:20.720Z,24.76
2018-07-11T11:01:05.024Z,24.77
2018-07-11T11:03:33.500Z,24.87
2018-07-11T11:06:03.507Z,24.88
2018-07-11T11:08:33.359Z,24.96
2018-07-11T11:11:03.347Z,24.97
2018-07-11T11:13:33.130Z,24.95
2018-07-11T11:16:03.085Z,24.97
2018-07-11T11:18:33.179Z,25.08
2018-07-11T11:21:03.139Z,25.09
2018-07-11T11:23:32.915Z,25.08
2018-07-11T11:26:02.754Z,25.12
2018-07-11T11:28:32.781Z,25.17
2018-07-11T11:31:02.647Z,24.92
2018-07-11T11:33:32.496Z,24.97
2018-07-11T11:36:02.351Z,25.05
2018-07-11T11:38:32.256Z,25.09
2018-07-11T11:41:02.069Z,25.13
2018-07-11T11:43:31.979Z,25.07
2018-07-11T11:46:01.972Z,25.23
2018-07-11T11:48:31.868Z,25.09
2018-07-11T11:51:01.743Z,25.22
2018-07-11T11:53:31.844Z,25.34
2018-07-11T11:56:01.715Z,25.28
2018-07-11T11:58:31.855Z,25.26
2018-07-11T12:01:01.750Z,25.34
2018-07-11T12:03:31.776Z,25.40
2018-07-11T12:06:01.787Z,25.45
2018-07-11T12:08:51.821Z,25.47
2018-07-11T12:11:21.760Z,25.67
2018-07-11T12:13:51.862Z,25.25
2018-07-11T12:16:21.707Z,25.34
2018-07-11T12:18:51.559Z,25.57
2018-07-11T12:21:21.580Z,25.47
2018-07-11T12:23:51.611Z,25.47
2018-07-11T12:26:21.663Z,25.58
2018-07-11T12:28:51.668Z,25.66
2018-07-11T12:31:21.594Z,25.49
2018-07-11T12:33:51.656Z,25.56
2018-07-11T12:36:21.638Z,25.57
2018-07-11T12:38:55.160Z,25.59
2018-07-11T12:41:25.320Z,25.72
2018-07-11T12:43:55.231Z,25.70
2018-07-11T12:46:25.459Z,25.67
2018-07-11T12:49:00.574Z,25.71
2018-07-11T12:51:30.712Z,25.76
2018-07-11T12:54:00.979Z,25.85
2018-07-11T12:56:30.979Z,25.82
2018-07-11T12:59:01.030Z,25.93
2018-07-11T13:01:31.034Z,26.09
2018-07-11T13:04:01.128Z,26.18
2018-07-11T13:06:31.244Z,26.09
2018-07-11T13:09:01.200Z,25.98
2018-07-11T13:11:31.180Z,26.05
2018-07-11T13:14:01.072Z,26.06
2018-07-11T13:16:31.042Z,26.10
2018-07-11T13:19:00.961Z,26.11
2018-07-11T13:21:30.924Z,26.21
2018-07-11T13:24:00.928Z,26.04
2018-07-11T13:26:30.755Z,26.17
2018-07-11T13:29:00.715Z,26.24
2018-07-11T13:31:30.818Z,26.31
2018-07-11T13:34:07.345Z,26.37
2018-07-11T13:36:37.250Z,26.12
2018-07-11T13:39:15.436Z,26.24
2018-07-11T13:41:45.894Z,26.09
2018-07-11T13:44:15.791Z,26.29
2018-07-11T13:46:45.962Z,26.22
2018-07-11T13:49:15.899Z,26.25
2018-07-11T13:51:45.895Z,26.36
2018-07-11T13:54:15.780Z,26.56
2018-07-11T13:56:46.639Z,26.64
2018-07-11T13:59:17.177Z,26.63
2018-07-11T14:01:47.057Z,26.64
2018-07-11T14:04:17.194Z,26.64
2018-07-11T14:06:47.252Z,26.76
2018-07-11T14:09:17.204Z,26.49
2018-07-11T14:11:47.127Z,26.44
2018-07-11T14:14:17.136Z,26.51
2018-07-11T14:16:47.110Z,26.27
2018-07-11T14:19:17.295Z,26.23
2018-07-11T14:21:47.164Z,26.36
2018-07-11T14:24:17.153Z,26.44
2018-07-11T14:26:47.344Z,26.44
2018-07-11T14:29:17.249Z,26.48
2018-07-11T14:31:47.294Z,26.42
2018-07-11T14:34:17.331Z,26.42
2018-07-11T14:36:47.172Z,26.37
2018-07-11T14:39:17.186Z,26.38
2018-07-11T14:41:47.075Z,26.38
2018-07-11T14:44:17.540Z,26.44
2018-07-11T14:46:47.415Z,26.52
2018-07-11T14:49:17.876Z,26.45
2018-07-11T14:51:47.903Z,26.35
2018-07-11T14:54:17.971Z,26.37
2018-07-11T14:56:48.231Z,26.37
2018-07-11T14:59:18.299Z,26.37
2018-07-11T15:01:48.326Z,26.41
2018-07-11T15:04:18.143Z,26.44
2018-07-11T15:06:48.033Z,26.60
2018-07-11T15:09:18.314Z,26.60
2018-07-11T15:11:48.091Z,26.54
2018-07-11T15:14:18.116Z,26.42
2018-07-11T15:16:48.287Z,26.32
2018-07-11T15:19:18.685Z,26.22
2018-07-11T15:21:48.779Z,26.17
2018-07-11T15:24:18.668Z,26.13
2018-07-11T15:26:48.679Z,26.17
2018-07-11T15:29:19.170Z,26.17
2018-07-11T15:31:49.597Z,26.22
2018-07-11T15:34:19.411Z,26.40
2018-07-11T15:36:49.500Z,26.28
2018-07-11T15:39:19.463Z,26.39
2018-07-11T15:41:49.534Z,26.41
2018-07-11T15:44:19.490Z,26.48
2018-07-11T15:46:49.579Z,26.66
2018-07-11T15:49:19.824Z,26.62
2018-07-11T15:51:50.569Z,26.65
2018-07-11T15:54:20.648Z,26.64
2018-07-11T15:56:50.694Z,26.62
2018-07-11T15:59:20.997Z,26.47
2018-07-11T16:01:55.089Z,26.40
2018-07-11T16:04:35.200Z,26.34
2018-07-11T16:07:06.846Z,26.42
2018-07-11T16:09:59.034Z,26.38
2018-07-11T16:12:28.882Z,26.24
2018-07-11T16:14:58.856Z,26.28
2018-07-11T16:17:28.820Z,26.31
2018-07-11T16:19:58.856Z,26.38
2018-07-11T16:22:28.979Z,26.34
2018-07-11T16:24:58.972Z,26.48
2018-07-11T16:27:28.927Z,26.45
2018-07-11T16:29:58.807Z,26.48
2018-07-11T16:32:28.665Z,26.61
2018-07-11T16:34:58.706Z,26.49
2018-07-11T16:37:28.655Z,26.61
2018-07-11T16:39:58.644Z,26.64
2018-07-11T16:42:28.562Z,26.68
2018-07-11T16:44:58.437Z,26.58
2018-07-11T16:47:28.841Z,26.51
2018-07-11T16:49:58.880Z,26.42
2018-07-11T16:52:29.311Z,26.47
2018-07-11T16:54:59.568Z,26.35
2018-07-11T16:57:37.273Z,26.40
2018-07-11T17:00:09.354Z,26.38
2018-07-11T17:02:41.435Z,26.30
2018-07-11T17:05:12.215Z,26.31
2018-07-11T17:07:50.213Z,26.18
2018-07-11T17:10:22.748Z,26.14
2018-07-11T17:12:58.126Z,26.16
2018-07-11T17:15:30.506Z,26.23
2018-07-11T17:18:00.543Z,26.20
2018-07-11T17:20:30.573Z,26.07
2018-07-11T17:23:06.884Z,26.04
2018-07-11T17:25:41.824Z,26.04
2018-07-11T17:28:11.837Z,25.93
2018-07-11T17:30:43.943Z,25.90
2018-07-11T17:33:14.606Z,25.93
2018-07-11T17:35:50.191Z,25.91
2018-07-11T17:38:25.962Z,25.83
2018-07-11T17:41:11.280Z,25.75
2018-07-11T17:43:41.319Z,25.64
2018-07-11T17:46:11.348Z,25.69
2018-07-11T17:49:45.433Z,25.65
2018-07-11T17:52:15.491Z,25.54
2018-07-11T17:55:08.678Z,25.52
2018-07-11T17:58:10.556Z,25.38
2018-07-11T18:00:46.300Z,25.42
2018-07-11T18:03:36.316Z,25.41
2018-07-11T18:06:16.883Z,25.39
2018-07-11T18:09:09.682Z,25.30
2018-07-11T18:11:53.928Z,25.20
2018-07-11T18:14:37.649Z,25.16
2018-07-11T18:17:12.227Z,25.16
2018-07-11T18:19:53.962Z,25.15
2018-07-11T18:22:41.758Z,25.10
2018-07-11T18:25:22.370Z,25.01
2018-07-11T18:30:10.548Z,24.97
2018-07-11T18:32:53.803Z,24.89
2018-07-11T18:35:35.234Z,24.88
2018-07-11T18:38:13.928Z,24.85
2018-07-11T18:41:28.894Z,24.83
2018-07-11T18:44:06.665Z,24.79
2018-07-11T18:46:55.458Z,24.79
2018-07-11T18:49:49.184Z,24.72
2018-07-11T18:52:33.412Z,24.59
2018-07-11T19:01:18.569Z,24.55
2018-07-11T19:04:05.419Z,24.47
2018-07-11T19:06:47.703Z,24.44
2018-07-11T19:10:26.824Z,24.42
2018-07-11T19:12:59.768Z,24.39
2018-07-11T19:15:47.564Z,24.37
2018-07-11T19:18:29.041Z,24.27
2018-07-11T19:21:11.680Z,24.30
2018-07-11T19:23:58.881Z,24.25
2018-07-11T19:27:05.388Z,24.21
2018-07-11T19:29:44.252Z,24.16
2018-07-11T19:32:32.187Z,24.07
2018-07-11T19:37:45.516Z,24.03
2018-07-11T19:40:56.464Z,23.91
2018-07-11T19:43:48.605Z,23.84
2018-07-11T19:46:45.776Z,23.77
2018-07-11T19:49:31.872Z,23.71
2018-07-11T19:54:22.480Z,23.65
2018-07-11T19:56:52.524Z,23.46
2018-07-11T19:59:22.426Z,23.39
2018-07-11T20:01:52.487Z,23.35
2018-07-11T20:04:22.400Z,23.31
2018-07-11T20:06:52.379Z,23.27
2018-07-11T20:09:22.640Z,23.25
2018-07-11T20:11:52.603Z,23.24
2018-07-11T20:14:22.615Z,23.21
2018-07-11T20:16:52.632Z,23.16
2018-07-11T20:19:22.646Z,23.12
2018-07-11T20:21:52.706Z,23.13
2018-07-11T20:24:23.090Z,23.06
2018-07-11T20:26:53.174Z,23.00
2018-07-11T20:29:23.188Z,22.93
2018-07-11T20:31:53.120Z,22.90
2018-07-11T20:34:23.100Z,22.87
2018-07-11T20:36:53.145Z,22.81
2018-07-11T20:39:23.171Z,22.77
2018-07-11T20:41:53.165Z,22.75
2018-07-11T20:44:23.048Z,22.44
2018-07-11T20:46:53.088Z,22.56
2018-07-11T20:49:28.566Z,22.45
2018-07-11T20:51:58.574Z,22.45
2018-07-11T20:54:28.460Z,22.62
2018-07-11T20:56:58.541Z,22.71
2018-07-11T20:59:39.450Z,22.75
2018-07-11T21:02:20.377Z,22.77
2018-07-11T21:05:17.503Z,22.79
2018-07-11T21:07:58.374Z,22.77
2018-07-11T21:11:41.740Z,22.75
2018-07-11T21:16:27.663Z,22.61
2018-07-11T21:19:04.556Z,22.54
2018-07-11T21:21:35.267Z,22.48
2018-07-11T21:24:06.124Z,22.41
2018-07-11T21:26:36.433Z,22.38
2018-07-11T21:29:06.412Z,22.34
2018-07-11T21:31:36.478Z,22.29
2018-07-11T21:34:06.359Z,22.23
2018-07-11T21:36:36.255Z,22.20
2018-07-11T21:39:06.784Z,22.15
2018-07-11T21:41:36.796Z,22.12
2018-07-11T21:44:07.171Z,22.09
2018-07-11T21:46:37.131Z,22.07
2018-07-11T21:49:07.100Z,22.05
2018-07-11T21:51:36.971Z,22.01
2018-07-11T21:54:06.843Z,21.98
2018-07-11T21:56:36.776Z,21.94
2018-07-11T21:59:06.704Z,21.95
2018-07-11T22:01:36.825Z,21.98
2018-07-11T22:04:06.664Z,21.91
2018-07-11T22:06:36.696Z,21.86
2018-07-11T22:09:07.164Z,21.83
2018-07-11T22:11:37.235Z,21.84
2018-07-11T22:14:07.342Z,21.86
2018-07-11T22:16:37.288Z,21.77
2018-07-11T22:19:07.199Z,21.71
2018-07-11T22:21:35.584Z,21.68
2018-07-11T22:24:03.677Z,21.70
2018-07-11T22:26:31.711Z,21.71
2018-07-11T22:28:59.971Z,21.73
2018-07-11T22:31:28.108Z,21.72
2018-07-11T22:33:56.249Z,21.70
2018-07-11T22:36:24.362Z,21.73
2018-07-11T22:38:52.528Z,21.75
2018-07-11T22:41:20.660Z,21.75
2018-07-11T22:43:48.798Z,21.60
2018-07-11T22:46:17.006Z,21.43
2018-07-11T22:48:45.168Z,21.46
2018-07-11T22:51:13.227Z,21.43
2018-07-11T22:53:41.481Z,21.40
2018-07-11T22:56:09.531Z,21.29
2018-07-11T22:58:37.711Z,21.18
2018-07-11T23:01:05.880Z,21.15
2018-07-11T23:03:34.040Z,21.08
2018-07-11T23:06:02.084Z,20.86
2018-07-11T23:08:30.115Z,20.89
2018-07-11T23:10:58.233Z,20.89
2018-07-11T23:13:26.296Z,20.90
2018-07-11T23:15:54.436Z,20.87
2018-07-11T23:18:22.616Z,20.91
2018-07-11T23:20:50.767Z,20.89
2018-07-11T23:23:18.936Z,20.96
2018-07-11T23:25:47.152Z,20.90
2018-07-11T23:28:15.327Z,20.92
2018-07-11T23:30:43.488Z,20.93
2018-07-11T23:33:11.568Z,20.89
2018-07-11T23:35:39.760Z,20.82
2018-07-11T23:38:07.974Z,20.82
2018-07-11T23:40:36.089Z,20.84
2018-07-11T23:43:04.128Z,20.85
2018-07-11T23:45:32.201Z,20.86
2018-07-11T23:48:00.380Z,20.76
2018-07-11T23:50:28.576Z,20.72
2018-07-11T23:52:56.708Z,20.71
2018-07-11T23:55:24.942Z,20.72
2018-07-11T23:57:53.003Z,20.75
